createdAt,value
2022-08-08T00:00:52.313Z,23.27
2022-08-08T00:03:00.789Z,23.58
2022-08-08T00:06:03.410Z,23.05
2022-08-08T00:08:40.069Z,21.23
2022-08-08T00:11:18.805Z,20.45
2022-08-08T00:14:16.380Z,19.88
2022-08-08T00:16:53.128Z,19.00
2022-08-08T00:19:29.576Z,17.98
2022-08-08T00:22:04.558Z,19.80
2022-08-08T00:24:38.143Z,18.80
2022-08-08T00:27:09.379Z,20.27
2022-08-08T00:29:46.993Z,20.48
2022-08-08T00:32:35.387Z,22.98
2022-08-08T00:35:34.557Z,22.10
2022-08-08T00:38:32.222Z,20.48
2022-08-08T00:42:09.077Z,20.05
2022-08-08T00:45:29.640Z,20.83
2022-08-08T00:48:29.947Z,21.75
2022-08-08T00:51:38.838Z,23.38
2022-08-08T00:54:46.585Z,22.90
2022-08-08T00:57:57.024Z,21.52
2022-08-08T01:00:27.773Z,22.58
2022-08-08T01:04:02.127Z,23.55
2022-08-08T01:07:10.608Z,20.95
2022-08-08T01:10:12.634Z,20.20
2022-08-08T01:13:10.947Z,19.25
2022-08-08T01:16:07.056Z,18.10
2022-08-08T01:19:42.016Z,17.80
2022-08-08T01:22:35.416Z,20.40
2022-08-08T01:25:40.346Z,22.58
2022-08-08T01:28:36.812Z,21.73
2022-08-08T01:32:13.611Z,21.52
2022-08-08T01:35:11.321Z,22.50
2022-08-08T01:38:12.901Z,21.40
2022-08-08T01:40:54.381Z,20.13
2022-08-08T01:43:41.673Z,19.17
2022-08-08T01:46:43.093Z,20.65
2022-08-08T01:49:37.629Z,21.60
2022-08-08T01:52:53.145Z,22.02
2022-08-08T01:56:27.215Z,22.83
2022-08-08T01:58:38.495Z,23.08
2022-08-08T02:01:17.287Z,21.42
2022-08-08T02:04:01.742Z,20.88
2022-08-08T02:06:53.593Z,21.25
2022-08-08T02:10:02.660Z,21.20
2022-08-08T02:12:29.557Z,19.55
2022-08-08T02:15:11.138Z,20.42
2022-08-08T02:17:47.798Z,21.15
2022-08-08T02:21:01.821Z,21.45
2022-08-08T02:23:23.182Z,20.77
2022-08-08T02:26:10.267Z,22.35
2022-08-08T02:28:51.835Z,22.23
2022-08-08T02:31:59.344Z,22.85
2022-08-08T02:34:39.353Z,22.85
2022-08-08T02:37:52.966Z,21.50
2022-08-08T02:40:38.267Z,21.73
2022-08-08T02:44:42.670Z,19.88
2022-08-08T02:46:35.882Z,20.98
2022-08-08T02:49:47.962Z,19.95
2022-08-08T02:52:50.780Z,18.42
2022-08-08T02:55:39.388Z,18.77
2022-08-08T02:59:17.219Z,17.63
2022-08-08T03:02:30.349Z,17.45
2022-08-08T03:05:32.854Z,17.25
2022-08-08T03:08:52.064Z,19.20
2022-08-08T03:12:03.034Z,18.90
2022-08-08T03:16:01.434Z,17.48
2022-08-08T03:17:59.681Z,18.63
2022-08-08T03:20:52.003Z,19.58
2022-08-08T03:23:23.443Z,19.58
2022-08-08T03:25:52.561Z,20.67
2022-08-08T03:28:31.910Z,20.02
2022-08-08T03:31:18.161Z,19.70
2022-08-08T03:33:55.618Z,19.63
2022-08-08T03:36:30.384Z,19.17
2022-08-08T03:39:14.753Z,19.48
2022-08-08T03:42:28.361Z,19.20
2022-08-08T03:44:35.019Z,19.98
2022-08-08T03:47:14.068Z,19.52
2022-08-08T03:50:00.665Z,20.17
2022-08-08T03:52:34.060Z,20.60
2022-08-08T03:55:20.459Z,19.90
2022-08-08T03:58:32.222Z,21.27
2022-08-08T04:01:02.787Z,20.35
2022-08-08T04:03:58.354Z,19.67
2022-08-08T04:06:29.934Z,21.38
2022-08-08T04:09:10.625Z,19.90
2022-08-08T04:11:57.726Z,20.05
2022-08-08T04:14:34.858Z,21.23
2022-08-08T04:17:06.842Z,22.35
2022-08-08T04:19:43.748Z,21.38
2022-08-08T04:22:11.710Z,20.27
2022-08-08T04:24:44.701Z,21.17
2022-08-08T04:28:03.574Z,21.80
2022-08-08T04:30:17.926Z,21.63
2022-08-08T04:32:50.296Z,21.17
2022-08-08T04:35:22.905Z,19.02
2022-08-08T04:37:51.831Z,19.58
2022-08-08T04:40:23.737Z,20.42
2022-08-08T04:42:56.162Z,20.50
2022-08-08T04:45:26.089Z,19.02
2022-08-08T04:47:54.454Z,19.13
2022-08-08T04:50:24.152Z,19.50
2022-08-08T04:52:58.624Z,18.65
2022-08-08T04:55:47.343Z,17.42
2022-08-08T04:58:18.951Z,17.88
2022-08-08T05:00:48.263Z,17.02
2022-08-08T05:04:07.449Z,17.40
2022-08-08T05:06:12.624Z,16.08
2022-08-08T05:08:51.531Z,16.88
2022-08-08T05:11:24.230Z,16.35
2022-08-08T05:14:01.058Z,16.50
2022-08-08T05:16:53.572Z,16.42
2022-08-08T05:20:11.691Z,15.13
2022-08-08T05:22:10.986Z,15.43
2022-08-08T05:24:40.172Z,17.33
2022-08-08T05:27:09.093Z,16.67
2022-08-08T05:29:40.863Z,16.90
2022-08-08T05:32:12.700Z,15.70
2022-08-08T05:34:47.310Z,15.05
2022-08-08T05:37:19.855Z,14.18
2022-08-08T05:39:52.715Z,13.07
2022-08-08T05:42:25.707Z,13.43
2022-08-08T05:44:57.449Z,14.30
2022-08-08T05:47:41.624Z,13.57
2022-08-08T05:50:18.854Z,14.40
2022-08-08T05:52:48.655Z,15.95
2022-08-08T05:55:16.722Z,14.85
2022-08-08T05:58:04.117Z,15.70
2022-08-08T06:00:37.419Z,15.27
2022-08-08T06:03:24.788Z,16.23
2022-08-08T06:05:56.762Z,13.85
2022-08-08T06:08:34.473Z,17.35
2022-08-08T06:11:07.242Z,15.10
2022-08-08T06:13:47.284Z,16.85
2022-08-08T06:16:18.843Z,15.45
2022-08-08T06:18:50.223Z,16.33
2022-08-08T06:21:32.865Z,14.13
2022-08-08T06:24:14.039Z,15.23
2022-08-08T06:26:59.150Z,12.73
2022-08-08T06:30:00.536Z,13.55
2022-08-08T06:32:32.687Z,11.40
2022-08-08T06:36:04.525Z,11.20
2022-08-08T06:37:55.779Z,11.20
2022-08-08T06:40:26.992Z,11.13
2022-08-08T06:43:04.270Z,9.82
2022-08-08T06:45:34.042Z,9.52
2022-08-08T06:48:05.109Z,9.93
2022-08-08T06:50:38.619Z,9.50
2022-08-08T06:53:17.351Z,9.65
2022-08-08T06:56:02.658Z,9.88
2022-08-08T06:58:33.421Z,10.98
2022-08-08T07:01:11.675Z,9.77
2022-08-08T07:04:36.782Z,9.02
2022-08-08T07:06:51.640Z,9.27
2022-08-08T07:09:21.922Z,9.70
2022-08-08T07:11:58.453Z,9.38
2022-08-08T07:14:32.331Z,9.18
2022-08-08T07:17:09.423Z,9.13
2022-08-08T07:19:55.981Z,9.40
2022-08-08T07:22:38.792Z,8.90
2022-08-08T07:25:11.073Z,8.63
2022-08-08T07:28:02.269Z,8.98
2022-08-08T07:30:35.262Z,9.98
2022-08-08T07:33:04.072Z,9.85
2022-08-08T07:35:35.529Z,9.45
2022-08-08T07:38:18.315Z,9.65
2022-08-08T07:40:50.577Z,9.88
2022-08-08T07:43:32.394Z,10.70
2022-08-08T07:46:24.181Z,11.20
2022-08-08T07:48:55.752Z,10.18
2022-08-08T07:51:44.991Z,10.90
2022-08-08T07:54:30.437Z,10.30
2022-08-08T07:57:09.109Z,11.27
2022-08-08T07:59:48.659Z,11.60
2022-08-08T08:02:34.951Z,10.98
2022-08-08T08:05:15.249Z,11.00
2022-08-08T08:07:52.870Z,11.40
2022-08-08T08:10:30.527Z,11.30
2022-08-08T08:13:25.537Z,10.98
2022-08-08T08:16:17.009Z,10.45
2022-08-08T08:18:52.177Z,10.63
2022-08-08T08:21:35.555Z,9.85
2022-08-08T08:24:14.683Z,9.77
2022-08-08T08:26:46.897Z,10.57
2022-08-08T08:29:21.393Z,10.50
2022-08-08T08:31:57.701Z,8.68
2022-08-08T08:34:31.834Z,8.23
2022-08-08T08:37:03.333Z,8.68
2022-08-08T08:40:01.519Z,6.50
2022-08-08T08:42:35.311Z,6.68
2022-08-08T08:45:20.929Z,6.45
2022-08-08T08:47:54.567Z,5.15
2022-08-08T08:50:32.793Z,5.35
2022-08-08T08:53:27.309Z,5.38
2022-08-08T08:56:02.051Z,5.03
2022-08-08T08:58:33.611Z,5.47
2022-08-08T09:01:08.338Z,4.75
2022-08-08T09:03:47.063Z,6.00
2022-08-08T09:06:28.360Z,5.22
2022-08-08T09:09:07.424Z,4.90
2022-08-08T09:12:02.202Z,5.20
2022-08-08T09:14:42.295Z,5.57
2022-08-08T09:17:18.315Z,6.90
2022-08-08T09:21:57.612Z,6.55
2022-08-08T09:22:39.389Z,5.82
2022-08-08T09:25:10.367Z,5.10
2022-08-08T09:27:56.141Z,5.38
2022-08-08T09:30:27.997Z,4.78
2022-08-08T09:33:11.970Z,4.10
2022-08-08T09:35:51.200Z,3.20
2022-08-08T09:38:33.949Z,3.28
2022-08-08T09:41:06.798Z,2.40
2022-08-08T09:44:05.078Z,2.70
2022-08-08T09:46:45.133Z,2.28
2022-08-08T09:49:42.341Z,2.30
2022-08-08T09:52:58.349Z,2.88
2022-08-08T09:55:08.836Z,2.40
2022-08-08T09:57:46.503Z,2.63
2022-08-08T10:00:53.454Z,2.30
2022-08-08T10:03:20.165Z,2.30
2022-08-08T10:05:48.664Z,2.10
2022-08-08T10:08:18.162Z,1.70
2022-08-08T10:10:51.056Z,2.20
2022-08-08T10:13:25.973Z,2.03
2022-08-08T10:16:03.408Z,1.80
2022-08-08T10:18:33.515Z,1.90
2022-08-08T10:21:23.240Z,2.08
2022-08-08T10:23:57.794Z,2.35
2022-08-08T10:26:52.340Z,2.10
2022-08-08T10:29:24.970Z,2.10
2022-08-08T10:32:16.941Z,2.03
2022-08-08T10:34:58.433Z,2.22
2022-08-08T10:37:30.784Z,1.92
2022-08-08T10:40:02.371Z,2.30
2022-08-08T10:42:37.740Z,2.20
2022-08-08T10:45:15.974Z,1.90
2022-08-08T10:47:55.674Z,2.17
2022-08-08T10:50:32.181Z,1.95
2022-08-08T10:53:07.782Z,2.00
2022-08-08T10:55:46.492Z,2.20
2022-08-08T10:58:15.997Z,2.00
2022-08-08T11:00:48.725Z,2.10
2022-08-08T11:03:37.118Z,2.10
2022-08-08T11:06:13.976Z,1.98
2022-08-08T11:08:50.163Z,2.35
2022-08-08T11:11:32.379Z,1.85
2022-08-08T11:14:12.233Z,1.83
2022-08-08T11:16:47.218Z,1.90
2022-08-08T11:19:18.767Z,1.85
2022-08-08T11:21:55.447Z,2.00
2022-08-08T11:24:29.058Z,2.25
2022-08-08T11:27:10.287Z,1.90
2022-08-08T11:29:58.345Z,1.88
2022-08-08T11:32:40.329Z,1.80
2022-08-08T11:35:27.554Z,1.63
2022-08-08T11:38:37.174Z,1.90
2022-08-08T11:40:52.629Z,2.10
2022-08-08T11:43:24.355Z,1.88
2022-08-08T11:46:09.842Z,1.90
2022-08-08T11:48:46.905Z,2.00
2022-08-08T11:51:30.610Z,2.08
2022-08-08T11:54:27.002Z,1.92
2022-08-08T11:56:56.495Z,1.80
2022-08-08T11:59:58.339Z,1.85
2022-08-08T12:02:32.589Z,1.88
2022-08-08T12:05:07.481Z,1.80
2022-08-08T12:07:54.099Z,2.10
2022-08-08T12:10:27.323Z,1.92
2022-08-08T12:13:03.338Z,2.22
2022-08-08T12:15:42.048Z,2.00
2022-08-08T12:18:20.619Z,1.90
2022-08-08T12:20:50.290Z,1.88
2022-08-08T12:23:42.890Z,1.95
2022-08-08T12:26:16.764Z,2.00
2022-08-08T12:28:56.848Z,1.65
2022-08-08T12:31:38.783Z,1.80
2022-08-08T12:34:07.198Z,1.90
2022-08-08T12:36:46.395Z,1.70
2022-08-08T12:39:56.165Z,2.10
2022-08-08T12:42:20.805Z,1.90
2022-08-08T12:44:50.437Z,1.92
2022-08-08T12:47:57.852Z,1.80
2022-08-08T12:50:18.975Z,1.75
2022-08-08T12:52:55.932Z,1.70
2022-08-08T12:55:35.423Z,1.98
2022-08-08T12:58:19.599Z,1.70
2022-08-08T13:00:51.611Z,1.73
2022-08-08T13:03:35.271Z,2.53
2022-08-08T13:06:11.863Z,1.90
2022-08-08T13:08:53.171Z,1.70
2022-08-08T13:12:24.568Z,1.92
2022-08-08T13:14:25.580Z,1.80
2022-08-08T13:16:53.856Z,1.95
2022-08-08T13:19:41.207Z,1.80
2022-08-08T13:22:19.768Z,1.60
2022-08-08T13:24:53.887Z,1.58
2022-08-08T13:27:35.866Z,2.00
2022-08-08T13:30:07.249Z,2.17
2022-08-08T13:32:39.505Z,1.98
2022-08-08T13:35:11.464Z,1.88
2022-08-08T13:38:06.240Z,2.22
2022-08-08T13:40:36.281Z,1.98
2022-08-08T13:43:11.950Z,2.13
2022-08-08T13:45:40.943Z,1.80
2022-08-08T13:48:15.018Z,1.70
2022-08-08T13:50:49.050Z,1.48
2022-08-08T13:53:28.040Z,1.60
2022-08-08T13:56:02.196Z,1.70
2022-08-08T13:58:33.184Z,2.03
2022-08-08T14:01:14.982Z,1.95
2022-08-08T14:03:55.313Z,1.70
2022-08-08T14:06:33.027Z,1.80
2022-08-08T14:09:24.402Z,1.85
2022-08-08T14:11:51.818Z,2.08
2022-08-08T14:14:26.129Z,1.90
2022-08-08T14:16:55.751Z,1.83
2022-08-08T14:19:55.568Z,1.70
2022-08-08T14:22:28.880Z,1.95
2022-08-08T14:25:00.141Z,1.80
2022-08-08T14:27:33.349Z,1.80
2022-08-08T14:30:17.986Z,1.60
2022-08-08T14:32:53.255Z,1.70
2022-08-08T14:35:28.299Z,1.73
2022-08-08T14:38:33.115Z,2.00
2022-08-08T14:40:59.195Z,1.80
2022-08-08T14:44:01.935Z,1.90
2022-08-08T14:46:31.108Z,1.90
2022-08-08T14:49:09.299Z,2.05
2022-08-08T14:51:53.222Z,2.00
2022-08-08T14:54:28.614Z,2.28
2022-08-08T14:57:04.172Z,1.80
2022-08-08T14:59:50.207Z,1.80
2022-08-08T15:02:31.082Z,1.98
2022-08-08T15:05:10.547Z,1.70
2022-08-08T15:07:41.168Z,1.83
2022-08-08T15:10:12.727Z,1.70
2022-08-08T15:12:41.883Z,2.00
2022-08-08T15:15:11.149Z,2.00
2022-08-08T15:17:49.593Z,2.00
2022-08-08T15:20:20.257Z,2.00
2022-08-08T15:22:48.471Z,2.10
2022-08-08T15:25:29.120Z,1.65
2022-08-08T15:28:32.824Z,1.70
2022-08-08T15:30:51.096Z,1.45
2022-08-08T15:33:38.470Z,1.67
2022-08-08T15:36:10.387Z,1.83
2022-08-08T15:38:49.614Z,1.67
2022-08-08T15:41:24.543Z,1.73
2022-08-08T15:44:00.499Z,1.40
2022-08-08T15:46:35.191Z,1.65
2022-08-08T15:49:05.428Z,1.73
2022-08-08T15:51:34.264Z,1.50
2022-08-08T15:54:04.227Z,1.90
2022-08-08T15:56:34.695Z,1.70
2022-08-08T15:59:02.682Z,1.63
2022-08-08T16:01:40.826Z,1.90
2022-08-08T16:04:29.769Z,1.70
2022-08-08T16:06:58.692Z,1.60
2022-08-08T16:13:09.302Z,1.70
2022-08-08T16:13:11.081Z,1.60
2022-08-08T16:15:09.044Z,1.70
2022-08-08T16:18:06.255Z,1.95
2022-08-08T16:20:32.883Z,1.80
2022-08-08T16:23:02.767Z,1.60
2022-08-08T16:25:46.434Z,1.63
2022-08-08T16:28:35.266Z,1.60
2022-08-08T16:31:07.761Z,1.70
2022-08-08T16:33:38.551Z,2.15
2022-08-08T16:36:15.789Z,1.70
2022-08-08T16:38:53.981Z,1.73
2022-08-08T16:41:27.287Z,2.00
2022-08-08T16:43:57.671Z,1.90
2022-08-08T16:46:37.543Z,1.90
2022-08-08T16:49:16.084Z,2.05
2022-08-08T16:55:01.956Z,1.67
2022-08-08T16:55:03.231Z,1.83
2022-08-08T16:58:14.657Z,2.03
2022-08-08T17:00:27.065Z,2.10
2022-08-08T17:02:55.987Z,1.70
2022-08-08T17:05:25.094Z,1.95
2022-08-08T17:08:13.796Z,1.70
2022-08-08T17:10:53.632Z,2.10
2022-08-08T17:13:41.374Z,2.03
2022-08-08T17:16:22.306Z,1.90
2022-08-08T17:18:54.792Z,2.00
2022-08-08T17:21:27.709Z,1.90
2022-08-08T17:24:05.125Z,2.00
2022-08-08T17:26:39.281Z,1.90
2022-08-08T17:29:08.869Z,1.90
2022-08-08T17:31:46.829Z,1.98
2022-08-08T17:34:49.334Z,1.90
2022-08-08T17:37:12.650Z,1.90
2022-08-08T17:40:04.163Z,1.75
2022-08-08T17:42:31.801Z,1.73
2022-08-08T17:45:00.679Z,2.00
2022-08-08T17:47:40.155Z,1.77
2022-08-08T17:50:10.753Z,1.90
2022-08-08T17:52:43.192Z,2.00
2022-08-08T17:56:05.563Z,1.90
2022-08-08T17:58:27.626Z,2.00
2022-08-08T18:00:57.418Z,2.15
2022-08-08T18:03:26.023Z,2.00
2022-08-08T18:05:54.283Z,1.90
2022-08-08T18:08:24.705Z,1.85
2022-08-08T18:11:11.723Z,2.10
2022-08-08T18:13:42.441Z,2.10
2022-08-08T18:16:12.759Z,2.20
2022-08-08T18:18:52.852Z,2.00
2022-08-08T18:21:34.612Z,2.25
2022-08-08T18:24:11.731Z,2.30
2022-08-08T18:26:54.325Z,2.17
2022-08-08T18:29:30.184Z,2.08
2022-08-08T18:32:03.728Z,2.20
2022-08-08T18:34:35.593Z,2.53
2022-08-08T18:37:08.372Z,2.83
2022-08-08T18:39:46.075Z,2.40
2022-08-08T18:42:17.890Z,2.10
2022-08-08T18:44:53.093Z,2.60
2022-08-08T18:47:26.754Z,2.42
2022-08-08T18:49:58.231Z,2.55
2022-08-08T18:52:29.935Z,2.70
2022-08-08T18:55:00.477Z,2.30
2022-08-08T18:57:45.214Z,2.63
2022-08-08T19:00:23.603Z,2.90
2022-08-08T19:03:06.428Z,2.35
2022-08-08T19:05:45.397Z,2.45
2022-08-08T19:08:25.132Z,2.85
2022-08-08T19:11:01.482Z,2.88
2022-08-08T19:13:53.858Z,2.65
2022-08-08T19:16:28.597Z,3.00
2022-08-08T19:19:13.157Z,2.60
2022-08-08T19:21:49.916Z,2.97
2022-08-08T19:24:39.413Z,2.70
2022-08-08T19:27:08.321Z,3.30
2022-08-08T19:29:45.992Z,3.20
2022-08-08T19:32:21.836Z,3.33
2022-08-08T19:34:56.247Z,3.40
2022-08-08T19:37:42.574Z,3.55
2022-08-08T19:40:21.856Z,3.40
2022-08-08T19:42:58.935Z,4.07
2022-08-08T19:45:59.880Z,4.53
2022-08-08T19:48:29.514Z,3.83
2022-08-08T19:51:01.135Z,3.95
2022-08-08T19:53:53.385Z,4.47
2022-08-08T19:56:25.692Z,5.13
2022-08-08T19:59:08.731Z,5.05
2022-08-08T20:02:02.637Z,4.97
2022-08-08T20:04:29.643Z,4.38
2022-08-08T20:07:03.590Z,4.47
2022-08-08T20:09:36.433Z,4.45
2022-08-08T20:12:16.217Z,4.30
2022-08-08T20:15:14.120Z,4.40
2022-08-08T20:17:48.465Z,3.80
2022-08-08T20:20:20.717Z,4.57
2022-08-08T20:22:53.887Z,4.30
2022-08-08T20:25:29.629Z,4.38
2022-08-08T20:28:07.128Z,4.60
2022-08-08T20:30:56.290Z,4.85
2022-08-08T20:33:29.464Z,5.18
2022-08-08T20:36:17.625Z,4.78
2022-08-08T20:38:50.523Z,5.97
2022-08-08T20:41:19.037Z,5.35
2022-08-08T20:43:50.049Z,5.28
2022-08-08T20:46:20.237Z,5.20
2022-08-08T20:48:52.208Z,5.57
2022-08-08T20:51:24.222Z,5.60
2022-08-08T20:53:59.966Z,5.55
2022-08-08T20:56:35.319Z,6.38
2022-08-08T20:59:06.385Z,5.13
2022-08-08T21:02:05.375Z,5.72
2022-08-08T21:04:27.914Z,5.70
2022-08-08T21:06:56.712Z,5.82
2022-08-08T21:09:31.420Z,6.68
2022-08-08T21:12:03.429Z,6.50
2022-08-08T21:14:35.183Z,8.50
2022-08-08T21:17:06.182Z,7.80
2022-08-08T21:19:45.272Z,7.70
2022-08-08T21:22:15.829Z,7.68
2022-08-08T21:24:52.603Z,8.02
2022-08-08T21:28:06.581Z,7.90
2022-08-08T21:30:19.382Z,7.00
2022-08-08T21:32:53.343Z,6.03
2022-08-08T21:36:16.992Z,5.97
2022-08-08T21:38:16.862Z,5.60
2022-08-08T21:40:55.584Z,5.65
2022-08-08T21:43:25.263Z,5.22
2022-08-08T21:48:04.479Z,4.47
2022-08-08T21:48:44.656Z,4.32
2022-08-08T21:51:20.348Z,4.82
2022-08-08T21:54:34.461Z,5.47
2022-08-08T21:56:56.632Z,6.13
2022-08-08T21:59:24.668Z,7.28
2022-08-08T22:01:57.967Z,7.55
2022-08-08T22:04:29.317Z,8.10
2022-08-08T22:06:58.733Z,7.63
2022-08-08T22:09:37.455Z,8.00
2022-08-08T22:12:15.025Z,8.80
2022-08-08T22:14:47.430Z,8.05
2022-08-08T22:17:19.854Z,9.20
2022-08-08T22:20:12.795Z,10.73
2022-08-08T22:22:41.487Z,11.35
2022-08-08T22:25:19.871Z,13.23
2022-08-08T22:28:03.158Z,14.05
2022-08-08T22:30:42.902Z,14.40
2022-08-08T22:34:10.805Z,14.02
2022-08-08T22:36:12.372Z,13.95
2022-08-08T22:38:48.096Z,14.80
2022-08-08T22:41:21.570Z,15.48
2022-08-08T22:44:02.905Z,15.05
2022-08-08T22:46:34.542Z,16.70
2022-08-08T22:49:09.415Z,14.85
2022-08-08T22:51:42.677Z,15.20
2022-08-08T22:54:32.962Z,16.20
2022-08-08T22:57:11.568Z,17.70
2022-08-08T22:59:58.822Z,18.58
2022-08-08T23:02:28.998Z,18.25
2022-08-08T23:04:57.903Z,17.80
2022-08-08T23:07:56.830Z,18.67
2022-08-08T23:10:21.428Z,17.73
2022-08-08T23:12:54.042Z,18.80
2022-08-08T23:16:38.155Z,18.33
2022-08-08T23:18:12.147Z,18.90
2022-08-08T23:20:40.780Z,20.23
2022-08-08T23:23:12.219Z,19.65
2022-08-08T23:25:45.452Z,18.92
2022-08-08T23:28:18.184Z,20.00
2022-08-08T23:30:47.546Z,19.70
2022-08-08T23:33:21.242Z,20.13
2022-08-08T23:36:07.776Z,20.02
2022-08-08T23:38:41.599Z,19.63
2022-08-08T23:41:23.036Z,20.42
2022-08-08T23:43:56.422Z,20.40
2022-08-08T23:49:00.797Z,21.63
2022-08-08T23:49:18.905Z,20.92
2022-08-08T23:52:04.632Z,21.33
2022-08-08T23:54:42.361Z,20.90
2022-08-08T23:57:26.600Z,21.42
